sensor_id;sensor_type;location;lat;lon;timestamp;P1;durP1;ratioP1;P2;durP2;ratioP2
57297;SDS011;43147;50.972;18.210;2022-09-25T00:00:44;33.40;;;19.70;;
57297;SDS011;43147;50.972;18.210;2022-09-25T00:03:11;33.30;;;20.40;;
57297;SDS011;43147;50.972;18.210;2022-09-25T00:05:40;31.60;;;19.20;;
57297;SDS011;43147;50.972;18.210;2022-09-25T00:08:07;28.70;;;18.90;;
57297;SDS011;43147;50.972;18.210;2022-09-25T00:10:34;33.00;;;19.90;;
57297;SDS011;43147;50.972;18.210;2022-09-25T00:13:04;29.70;;;18.10;;
57297;SDS011;43147;50.972;18.210;2022-09-25T00:15:29;36.50;;;18.70;;
57297;SDS011;43147;50.972;18.210;2022-09-25T00:17:55;36.20;;;19.60;;
57297;SDS011;43147;50.972;18.210;2022-09-25T00:20:20;31.20;;;18.20;;
57297;SDS011;43147;50.972;18.210;2022-09-25T00:22:48;30.80;;;18.30;;
57297;SDS011;43147;50.972;18.210;2022-09-25T00:25:15;36.40;;;19.20;;
57297;SDS011;43147;50.972;18.210;2022-09-25T00:27:41;34.10;;;19.10;;
57297;SDS011;43147;50.972;18.210;2022-09-25T00:30:09;34.10;;;18.80;;
57297;SDS011;43147;50.972;18.210;2022-09-25T00:32:36;28.40;;;18.60;;
57297;SDS011;43147;50.972;18.210;2022-09-25T00:35:02;34.30;;;20.10;;
57297;SDS011;43147;50.972;18.210;2022-09-25T00:37:28;31.20;;;18.80;;
57297;SDS011;43147;50.972;18.210;2022-09-25T00:39:54;28.00;;;18.30;;
57297;SDS011;43147;50.972;18.210;2022-09-25T00:42:23;30.50;;;18.00;;
57297;SDS011;43147;50.972;18.210;2022-09-25T00:55:34;53.90;;;28.40;;
57297;SDS011;43147;50.972;18.210;2022-09-25T00:58:00;68.90;;;31.80;;
57297;SDS011;43147;50.972;18.210;2022-09-25T01:00:27;71.00;;;36.30;;
57297;SDS011;43147;50.972;18.210;2022-09-25T01:02:53;52.80;;;26.10;;
57297;SDS011;43147;50.972;18.210;2022-09-25T01:05:22;39.30;;;22.30;;
57297;SDS011;43147;50.972;18.210;2022-09-25T01:07:52;33.90;;;21.10;;
57297;SDS011;43147;50.972;18.210;2022-09-25T01:10:19;32.60;;;20.70;;
57297;SDS011;43147;50.972;18.210;2022-09-25T01:12:46;40.20;;;21.50;;
57297;SDS011;43147;50.972;18.210;2022-09-25T01:15:13;36.80;;;21.30;;
57297;SDS011;43147;50.972;18.210;2022-09-25T01:17:42;35.40;;;20.50;;
57297;SDS011;43147;50.972;18.210;2022-09-25T01:23:12;37.80;;;21.70;;
57297;SDS011;43147;50.972;18.210;2022-09-25T01:30:44;38.10;;;20.80;;
57297;SDS011;43147;50.972;18.210;2022-09-25T01:33:19;39.20;;;20.30;;
57297;SDS011;43147;50.972;18.210;2022-09-25T01:35:51;32.70;;;20.40;;
57297;SDS011;43147;50.972;18.210;2022-09-25T01:41:10;35.40;;;21.20;;
57297;SDS011;43147;50.972;18.210;2022-09-25T01:43:59;36.60;;;20.70;;
57297;SDS011;43147;50.972;18.210;2022-09-25T01:46:28;38.10;;;21.70;;
57297;SDS011;43147;50.972;18.210;2022-09-25T01:48:58;35.80;;;21.50;;
57297;SDS011;43147;50.972;18.210;2022-09-25T01:51:29;34.40;;;20.30;;
57297;SDS011;43147;50.972;18.210;2022-09-25T01:54:13;32.10;;;21.50;;
57297;SDS011;43147;50.972;18.210;2022-09-25T01:56:49;36.20;;;21.50;;
57297;SDS011;43147;50.972;18.210;2022-09-25T01:59:29;36.10;;;22.30;;
57297;SDS011;43147;50.972;18.210;2022-09-25T02:01:58;34.80;;;21.80;;
57297;SDS011;43147;50.972;18.210;2022-09-25T02:04:33;44.40;;;22.10;;
57297;SDS011;43147;50.972;18.210;2022-09-25T02:07:02;38.60;;;23.20;;
57297;SDS011;43147;50.972;18.210;2022-09-25T02:09:40;39.00;;;24.60;;
57297;SDS011;43147;50.972;18.210;2022-09-25T02:12:16;40.60;;;25.00;;
57297;SDS011;43147;50.972;18.210;2022-09-25T02:14:52;38.30;;;24.70;;
57297;SDS011;43147;50.972;18.210;2022-09-25T02:17:22;47.00;;;25.90;;
57297;SDS011;43147;50.972;18.210;2022-09-25T02:20:32;48.50;;;25.40;;
57297;SDS011;43147;50.972;18.210;2022-09-25T02:26:04;48.60;;;25.10;;
57297;SDS011;43147;50.972;18.210;2022-09-25T02:28:32;39.80;;;25.30;;
57297;SDS011;43147;50.972;18.210;2022-09-25T02:30:58;44.50;;;27.10;;
57297;SDS011;43147;50.972;18.210;2022-09-25T02:33:24;46.60;;;27.50;;
57297;SDS011;43147;50.972;18.210;2022-09-25T02:35:50;45.60;;;27.50;;
57297;SDS011;43147;50.972;18.210;2022-09-25T02:38:17;43.30;;;26.30;;
57297;SDS011;43147;50.972;18.210;2022-09-25T02:40:45;45.20;;;26.20;;
57297;SDS011;43147;50.972;18.210;2022-09-25T02:43:20;43.00;;;25.50;;
57297;SDS011;43147;50.972;18.210;2022-09-25T02:46:06;46.00;;;28.00;;
57297;SDS011;43147;50.972;18.210;2022-09-25T02:51:11;50.50;;;27.10;;
57297;SDS011;43147;50.972;18.210;2022-09-25T02:54:01;48.10;;;27.20;;
57297;SDS011;43147;50.972;18.210;2022-09-25T02:56:35;43.00;;;25.70;;
57297;SDS011;43147;50.972;18.210;2022-09-25T02:59:06;43.40;;;25.70;;
57297;SDS011;43147;50.972;18.210;2022-09-25T03:01:34;46.90;;;26.70;;
57297;SDS011;43147;50.972;18.210;2022-09-25T03:04:02;45.40;;;28.30;;
57297;SDS011;43147;50.972;18.210;2022-09-25T03:06:29;46.40;;;26.80;;
57297;SDS011;43147;50.972;18.210;2022-09-25T03:08:55;44.60;;;26.80;;
57297;SDS011;43147;50.972;18.210;2022-09-25T03:11:22;40.90;;;26.10;;
57297;SDS011;43147;50.972;18.210;2022-09-25T03:13:55;48.00;;;28.00;;
57297;SDS011;43147;50.972;18.210;2022-09-25T03:19:05;47.70;;;27.00;;
57297;SDS011;43147;50.972;18.210;2022-09-25T03:21:31;45.10;;;28.50;;
57297;SDS011;43147;50.972;18.210;2022-09-25T03:23:57;46.20;;;28.10;;
57297;SDS011;43147;50.972;18.210;2022-09-25T03:26:23;51.00;;;29.30;;
57297;SDS011;43147;50.972;18.210;2022-09-25T03:28:51;55.60;;;29.60;;
57297;SDS011;43147;50.972;18.210;2022-09-25T03:31:18;46.40;;;28.60;;
57297;SDS011;43147;50.972;18.210;2022-09-25T03:33:44;49.30;;;30.00;;
57297;SDS011;43147;50.972;18.210;2022-09-25T03:36:11;49.00;;;26.90;;
57297;SDS011;43147;50.972;18.210;2022-09-25T03:38:41;47.10;;;27.30;;
57297;SDS011;43147;50.972;18.210;2022-09-25T03:41:08;51.80;;;28.70;;
57297;SDS011;43147;50.972;18.210;2022-09-25T03:43:35;47.20;;;28.60;;
57297;SDS011;43147;50.972;18.210;2022-09-25T03:46:05;49.00;;;29.60;;
57297;SDS011;43147;50.972;18.210;2022-09-25T03:48:32;48.60;;;27.90;;
57297;SDS011;43147;50.972;18.210;2022-09-25T03:50:59;49.00;;;28.00;;
57297;SDS011;43147;50.972;18.210;2022-09-25T03:53:26;52.30;;;30.20;;
57297;SDS011;43147;50.972;18.210;2022-09-25T03:55:52;43.20;;;26.40;;
57297;SDS011;43147;50.972;18.210;2022-09-25T03:58:18;48.30;;;27.80;;
57297;SDS011;43147;50.972;18.210;2022-09-25T04:00:44;40.60;;;24.80;;
57297;SDS011;43147;50.972;18.210;2022-09-25T04:03:14;42.60;;;25.00;;
57297;SDS011;43147;50.972;18.210;2022-09-25T04:05:40;42.30;;;26.40;;
57297;SDS011;43147;50.972;18.210;2022-09-25T04:08:08;50.30;;;27.50;;
57297;SDS011;43147;50.972;18.210;2022-09-25T04:10:34;43.40;;;25.80;;
57297;SDS011;43147;50.972;18.210;2022-09-25T04:13:04;46.20;;;26.50;;
57297;SDS011;43147;50.972;18.210;2022-09-25T04:15:37;47.00;;;26.40;;
57297;SDS011;43147;50.972;18.210;2022-09-25T04:18:06;44.10;;;25.90;;
57297;SDS011;43147;50.972;18.210;2022-09-25T04:20:32;48.50;;;27.30;;
57297;SDS011;43147;50.972;18.210;2022-09-25T04:22:58;51.00;;;26.00;;
57297;SDS011;43147;50.972;18.210;2022-09-25T04:25:23;44.70;;;26.20;;
57297;SDS011;43147;50.972;18.210;2022-09-25T04:27:52;51.40;;;27.70;;
57297;SDS011;43147;50.972;18.210;2022-09-25T04:30:21;42.70;;;25.70;;
57297;SDS011;43147;50.972;18.210;2022-09-25T04:32:47;39.60;;;24.30;;
57297;SDS011;43147;50.972;18.210;2022-09-25T04:35:31;45.50;;;24.40;;
57297;SDS011;43147;50.972;18.210;2022-09-25T04:37:57;40.80;;;24.10;;
57297;SDS011;43147;50.972;18.210;2022-09-25T04:40:23;40.20;;;25.20;;
57297;SDS011;43147;50.972;18.210;2022-09-25T04:42:53;44.30;;;26.30;;
57297;SDS011;43147;50.972;18.210;2022-09-25T04:45:20;39.30;;;25.30;;
57297;SDS011;43147;50.972;18.210;2022-09-25T04:47:48;45.10;;;25.80;;
57297;SDS011;43147;50.972;18.210;2022-09-25T04:50:13;45.90;;;28.20;;
57297;SDS011;43147;50.972;18.210;2022-09-25T04:52:39;44.70;;;28.70;;
57297;SDS011;43147;50.972;18.210;2022-09-25T04:55:04;46.00;;;28.70;;
57297;SDS011;43147;50.972;18.210;2022-09-25T04:57:31;48.20;;;26.40;;
57297;SDS011;43147;50.972;18.210;2022-09-25T04:59:57;42.10;;;26.00;;
57297;SDS011;43147;50.972;18.210;2022-09-25T05:02:26;46.50;;;28.70;;
57297;SDS011;43147;50.972;18.210;2022-09-25T05:04:52;48.50;;;28.20;;
57297;SDS011;43147;50.972;18.210;2022-09-25T05:07:18;51.50;;;29.20;;
57297;SDS011;43147;50.972;18.210;2022-09-25T05:09:43;51.10;;;30.40;;
57297;SDS011;43147;50.972;18.210;2022-09-25T05:12:09;45.40;;;28.80;;
57297;SDS011;43147;50.972;18.210;2022-09-25T05:14:34;53.00;;;30.40;;
57297;SDS011;43147;50.972;18.210;2022-09-25T05:17:00;52.20;;;26.80;;
57297;SDS011;43147;50.972;18.210;2022-09-25T05:19:25;53.20;;;31.10;;
57297;SDS011;43147;50.972;18.210;2022-09-25T05:21:52;54.60;;;31.70;;
57297;SDS011;43147;50.972;18.210;2022-09-25T05:24:17;55.00;;;30.60;;
57297;SDS011;43147;50.972;18.210;2022-09-25T05:26:43;51.40;;;31.00;;
57297;SDS011;43147;50.972;18.210;2022-09-25T05:29:08;56.30;;;33.40;;
57297;SDS011;43147;50.972;18.210;2022-09-25T05:31:35;54.00;;;32.10;;
57297;SDS011;43147;50.972;18.210;2022-09-25T05:34:01;50.10;;;31.90;;
57297;SDS011;43147;50.972;18.210;2022-09-25T05:36:27;52.10;;;32.20;;
57297;SDS011;43147;50.972;18.210;2022-09-25T05:38:53;52.90;;;30.90;;
57297;SDS011;43147;50.972;18.210;2022-09-25T05:41:18;51.10;;;31.60;;
57297;SDS011;43147;50.972;18.210;2022-09-25T05:43:44;54.70;;;32.10;;
57297;SDS011;43147;50.972;18.210;2022-09-25T05:46:14;58.40;;;33.50;;
57297;SDS011;43147;50.972;18.210;2022-09-25T05:48:40;54.00;;;32.10;;
57297;SDS011;43147;50.972;18.210;2022-09-25T05:51:06;51.20;;;30.40;;
57297;SDS011;43147;50.972;18.210;2022-09-25T05:53:32;51.70;;;31.90;;
57297;SDS011;43147;50.972;18.210;2022-09-25T05:55:59;59.70;;;36.10;;
57297;SDS011;43147;50.972;18.210;2022-09-25T05:58:27;54.60;;;33.60;;
57297;SDS011;43147;50.972;18.210;2022-09-25T06:00:53;60.60;;;34.30;;
57297;SDS011;43147;50.972;18.210;2022-09-25T06:03:19;51.10;;;32.30;;
57297;SDS011;43147;50.972;18.210;2022-09-25T06:05:45;56.80;;;36.80;;
57297;SDS011;43147;50.972;18.210;2022-09-25T06:08:12;58.60;;;34.80;;
57297;SDS011;43147;50.972;18.210;2022-09-25T06:10:38;51.00;;;32.70;;
57297;SDS011;43147;50.972;18.210;2022-09-25T06:13:04;52.20;;;33.50;;
57297;SDS011;43147;50.972;18.210;2022-09-25T06:15:37;54.70;;;34.30;;
57297;SDS011;43147;50.972;18.210;2022-09-25T06:18:06;47.80;;;32.20;;
57297;SDS011;43147;50.972;18.210;2022-09-25T06:20:32;63.70;;;37.50;;
57297;SDS011;43147;50.972;18.210;2022-09-25T06:22:59;56.50;;;34.80;;
57297;SDS011;43147;50.972;18.210;2022-09-25T06:25:27;50.50;;;34.30;;
57297;SDS011;43147;50.972;18.210;2022-09-25T06:27:54;53.80;;;35.20;;
57297;SDS011;43147;50.972;18.210;2022-09-25T06:30:24;56.70;;;39.30;;
57297;SDS011;43147;50.972;18.210;2022-09-25T06:33:02;54.50;;;37.20;;
57297;SDS011;43147;50.972;18.210;2022-09-25T06:35:33;62.00;;;37.50;;
57297;SDS011;43147;50.972;18.210;2022-09-25T06:38:00;52.10;;;37.40;;
57297;SDS011;43147;50.972;18.210;2022-09-25T06:40:27;60.10;;;35.80;;
57297;SDS011;43147;50.972;18.210;2022-09-25T06:43:03;55.70;;;39.70;;
57297;SDS011;43147;50.972;18.210;2022-09-25T06:45:32;48.90;;;36.50;;
57297;SDS011;43147;50.972;18.210;2022-09-25T06:48:12;57.50;;;41.10;;
57297;SDS011;43147;50.972;18.210;2022-09-25T06:53:12;50.10;;;36.10;;
57297;SDS011;43147;50.972;18.210;2022-09-25T06:55:38;47.20;;;35.50;;
57297;SDS011;43147;50.972;18.210;2022-09-25T06:58:05;49.50;;;36.80;;
57297;SDS011;43147;50.972;18.210;2022-09-25T07:00:32;50.50;;;40.10;;
57297;SDS011;43147;50.972;18.210;2022-09-25T07:02:58;53.50;;;39.70;;
57297;SDS011;43147;50.972;18.210;2022-09-25T07:05:43;53.10;;;39.90;;
57297;SDS011;43147;50.972;18.210;2022-09-25T07:08:10;50.40;;;38.10;;
57297;SDS011;43147;50.972;18.210;2022-09-25T07:10:38;49.70;;;37.20;;
57297;SDS011;43147;50.972;18.210;2022-09-25T07:13:03;50.40;;;38.20;;
57297;SDS011;43147;50.972;18.210;2022-09-25T07:15:29;44.40;;;34.10;;
57297;SDS011;43147;50.972;18.210;2022-09-25T07:17:55;44.90;;;33.40;;
57297;SDS011;43147;50.972;18.210;2022-09-25T07:20:21;41.90;;;33.60;;
57297;SDS011;43147;50.972;18.210;2022-09-25T07:22:47;47.90;;;35.00;;
57297;SDS011;43147;50.972;18.210;2022-09-25T07:25:12;42.30;;;33.00;;
57297;SDS011;43147;50.972;18.210;2022-09-25T07:27:40;46.80;;;33.00;;
57297;SDS011;43147;50.972;18.210;2022-09-25T07:30:06;51.20;;;37.00;;
57297;SDS011;43147;50.972;18.210;2022-09-25T07:32:32;43.70;;;32.70;;
57297;SDS011;43147;50.972;18.210;2022-09-25T07:34:58;50.70;;;38.00;;
57297;SDS011;43147;50.972;18.210;2022-09-25T07:37:24;57.60;;;44.50;;
57297;SDS011;43147;50.972;18.210;2022-09-25T07:39:50;53.80;;;43.60;;
57297;SDS011;43147;50.972;18.210;2022-09-25T07:42:15;54.10;;;43.90;;
57297;SDS011;43147;50.972;18.210;2022-09-25T07:44:41;44.20;;;34.60;;
57297;SDS011;43147;50.972;18.210;2022-09-25T07:47:07;36.10;;;26.40;;
57297;SDS011;43147;50.972;18.210;2022-09-25T07:49:33;34.80;;;23.90;;
57297;SDS011;43147;50.972;18.210;2022-09-25T07:52:00;31.40;;;23.50;;
57297;SDS011;43147;50.972;18.210;2022-09-25T07:54:26;35.80;;;24.60;;
57297;SDS011;43147;50.972;18.210;2022-09-25T07:56:52;30.90;;;24.30;;
57297;SDS011;43147;50.972;18.210;2022-09-25T07:59:18;31.90;;;24.30;;
57297;SDS011;43147;50.972;18.210;2022-09-25T08:01:44;30.50;;;23.80;;
57297;SDS011;43147;50.972;18.210;2022-09-25T08:04:09;31.80;;;27.20;;
57297;SDS011;43147;50.972;18.210;2022-09-25T08:06:35;34.30;;;25.10;;
57297;SDS011;43147;50.972;18.210;2022-09-25T08:09:02;31.80;;;22.30;;
57297;SDS011;43147;50.972;18.210;2022-09-25T08:11:28;31.80;;;23.30;;
57297;SDS011;43147;50.972;18.210;2022-09-25T08:13:55;27.00;;;22.00;;
57297;SDS011;43147;50.972;18.210;2022-09-25T08:16:21;33.60;;;22.00;;
57297;SDS011;43147;50.972;18.210;2022-09-25T08:18:48;25.70;;;20.20;;
57297;SDS011;43147;50.972;18.210;2022-09-25T08:21:15;26.20;;;20.20;;
57297;SDS011;43147;50.972;18.210;2022-09-25T08:23:43;27.80;;;20.50;;
57297;SDS011;43147;50.972;18.210;2022-09-25T08:26:12;28.60;;;20.30;;
57297;SDS011;43147;50.972;18.210;2022-09-25T08:28:38;25.10;;;18.80;;
57297;SDS011;43147;50.972;18.210;2022-09-25T08:31:03;30.70;;;20.60;;
57297;SDS011;43147;50.972;18.210;2022-09-25T08:33:29;29.90;;;22.60;;
57297;SDS011;43147;50.972;18.210;2022-09-25T08:35:56;24.60;;;18.30;;
57297;SDS011;43147;50.972;18.210;2022-09-25T08:38:23;23.20;;;18.10;;
57297;SDS011;43147;50.972;18.210;2022-09-25T08:40:55;29.20;;;20.60;;
57297;SDS011;43147;50.972;18.210;2022-09-25T08:43:23;25.20;;;17.90;;
57297;SDS011;43147;50.972;18.210;2022-09-25T08:45:50;25.80;;;19.00;;
57297;SDS011;43147;50.972;18.210;2022-09-25T08:48:39;22.40;;;17.70;;
57297;SDS011;43147;50.972;18.210;2022-09-25T08:51:27;23.70;;;17.40;;
57297;SDS011;43147;50.972;18.210;2022-09-25T08:53:57;21.00;;;17.70;;
57297;SDS011;43147;50.972;18.210;2022-09-25T08:56:23;17.70;;;15.20;;
57297;SDS011;43147;50.972;18.210;2022-09-25T08:58:53;20.70;;;14.40;;
57297;SDS011;43147;50.972;18.210;2022-09-25T09:01:50;19.70;;;14.10;;
57297;SDS011;43147;50.972;18.210;2022-09-25T09:04:32;23.10;;;16.80;;
57297;SDS011;43147;50.972;18.210;2022-09-25T09:07:06;22.10;;;15.10;;
57297;SDS011;43147;50.972;18.210;2022-09-25T09:09:37;21.00;;;15.90;;
57297;SDS011;43147;50.972;18.210;2022-09-25T09:12:11;16.60;;;14.00;;
57297;SDS011;43147;50.972;18.210;2022-09-25T09:14:41;20.40;;;14.40;;
57297;SDS011;43147;50.972;18.210;2022-09-25T09:17:13;13.30;;;11.90;;
57297;SDS011;43147;50.972;18.210;2022-09-25T09:19:44;12.80;;;10.80;;
57297;SDS011;43147;50.972;18.210;2022-09-25T09:22:12;14.10;;;10.60;;
57297;SDS011;43147;50.972;18.210;2022-09-25T09:30:46;10.90;;;9.60;;
57297;SDS011;43147;50.972;18.210;2022-09-25T09:47:45;9.20;;;7.90;;
57297;SDS011;43147;50.972;18.210;2022-09-25T09:53:19;6.20;;;5.60;;
57297;SDS011;43147;50.972;18.210;2022-09-25T09:58:47;5.00;;;3.30;;
57297;SDS011;43147;50.972;18.210;2022-09-25T10:01:16;4.10;;;3.60;;
57297;SDS011;43147;50.972;18.210;2022-09-25T10:03:44;5.70;;;2.40;;
57297;SDS011;43147;50.972;18.210;2022-09-25T10:06:12;2.70;;;2.20;;
57297;SDS011;43147;50.972;18.210;2022-09-25T10:08:39;4.00;;;3.50;;
57297;SDS011;43147;50.972;18.210;2022-09-25T10:11:16;3.50;;;2.60;;
57297;SDS011;43147;50.972;18.210;2022-09-25T10:13:43;6.00;;;3.50;;
57297;SDS011;43147;50.972;18.210;2022-09-25T10:16:13;5.20;;;3.70;;
57297;SDS011;43147;50.972;18.210;2022-09-25T10:21:22;4.00;;;3.00;;
57297;SDS011;43147;50.972;18.210;2022-09-25T10:23:50;4.20;;;2.50;;
57297;SDS011;43147;50.972;18.210;2022-09-25T10:26:30;3.50;;;2.50;;
57297;SDS011;43147;50.972;18.210;2022-09-25T10:29:10;2.70;;;2.30;;
57297;SDS011;43147;50.972;18.210;2022-09-25T10:31:56;3.30;;;2.20;;
57297;SDS011;43147;50.972;18.210;2022-09-25T10:34:23;2.70;;;1.40;;
57297;SDS011;43147;50.972;18.210;2022-09-25T10:36:51;3.00;;;1.50;;
57297;SDS011;43147;50.972;18.210;2022-09-25T10:39:27;1.70;;;1.40;;
57297;SDS011;43147;50.972;18.210;2022-09-25T10:42:01;3.00;;;1.30;;
57297;SDS011;43147;50.972;18.210;2022-09-25T10:44:35;4.10;;;1.40;;
57297;SDS011;43147;50.972;18.210;2022-09-25T11:00:56;7.40;;;2.90;;
57297;SDS011;43147;50.972;18.210;2022-09-25T11:03:29;6.40;;;3.70;;
57297;SDS011;43147;50.972;18.210;2022-09-25T11:06:00;3.60;;;3.10;;
57297;SDS011;43147;50.972;18.210;2022-09-25T11:08:31;3.80;;;3.40;;
57297;SDS011;43147;50.972;18.210;2022-09-25T11:10:59;5.00;;;3.50;;
57297;SDS011;43147;50.972;18.210;2022-09-25T11:13:27;7.60;;;3.60;;
57297;SDS011;43147;50.972;18.210;2022-09-25T11:16:02;4.80;;;3.40;;
57297;SDS011;43147;50.972;18.210;2022-09-25T11:18:35;4.60;;;3.10;;
57297;SDS011;43147;50.972;18.210;2022-09-25T11:23:59;3.90;;;3.50;;
57297;SDS011;43147;50.972;18.210;2022-09-25T11:26:54;4.10;;;3.40;;
57297;SDS011;43147;50.972;18.210;2022-09-25T11:29:24;3.90;;;3.30;;
57297;SDS011;43147;50.972;18.210;2022-09-25T11:32:03;5.90;;;3.60;;
57297;SDS011;43147;50.972;18.210;2022-09-25T11:39:55;4.10;;;3.70;;
57297;SDS011;43147;50.972;18.210;2022-09-25T11:53:48;5.30;;;4.00;;
57297;SDS011;43147;50.972;18.210;2022-09-25T12:01:28;5.30;;;4.00;;
57297;SDS011;43147;50.972;18.210;2022-09-25T12:20:27;6.10;;;4.40;;
57297;SDS011;43147;50.972;18.210;2022-09-25T12:26:12;7.80;;;4.20;;
57297;SDS011;43147;50.972;18.210;2022-09-25T12:31:52;5.20;;;4.60;;
57297;SDS011;43147;50.972;18.210;2022-09-25T12:37:36;6.00;;;4.30;;
57297;SDS011;43147;50.972;18.210;2022-09-25T12:42:49;6.00;;;4.30;;
57297;SDS011;43147;50.972;18.210;2022-09-25T12:45:22;7.30;;;4.60;;
57297;SDS011;43147;50.972;18.210;2022-09-25T12:51:03;5.10;;;4.40;;
57297;SDS011;43147;50.972;18.210;2022-09-25T12:56:18;6.80;;;4.70;;
57297;SDS011;43147;50.972;18.210;2022-09-25T12:58:51;5.30;;;4.80;;
57297;SDS011;43147;50.972;18.210;2022-09-25T13:01:20;5.60;;;4.50;;
57297;SDS011;43147;50.972;18.210;2022-09-25T13:03:59;6.50;;;5.20;;
57297;SDS011;43147;50.972;18.210;2022-09-25T13:06:35;5.90;;;4.20;;
57297;SDS011;43147;50.972;18.210;2022-09-25T13:09:24;7.80;;;4.90;;
57297;SDS011;43147;50.972;18.210;2022-09-25T13:15:08;5.30;;;4.20;;
57297;SDS011;43147;50.972;18.210;2022-09-25T13:17:40;5.10;;;4.60;;
57297;SDS011;43147;50.972;18.210;2022-09-25T13:22:50;8.00;;;5.60;;
57297;SDS011;43147;50.972;18.210;2022-09-25T13:25:15;7.80;;;4.70;;
57297;SDS011;43147;50.972;18.210;2022-09-25T13:27:43;5.80;;;5.00;;
57297;SDS011;43147;50.972;18.210;2022-09-25T13:32:49;7.20;;;6.20;;
57297;SDS011;43147;50.972;18.210;2022-09-25T13:35:17;7.60;;;5.50;;
57297;SDS011;43147;50.972;18.210;2022-09-25T13:37:44;12.00;;;7.60;;
57297;SDS011;43147;50.972;18.210;2022-09-25T13:40:17;9.40;;;8.30;;
57297;SDS011;43147;50.972;18.210;2022-09-25T13:43:21;11.20;;;6.50;;
57297;SDS011;43147;50.972;18.210;2022-09-25T13:48:44;15.60;;;11.50;;
57297;SDS011;43147;50.972;18.210;2022-09-25T13:56:27;8.30;;;5.10;;
57297;SDS011;43147;50.972;18.210;2022-09-25T14:01:38;7.60;;;5.30;;
57297;SDS011;43147;50.972;18.210;2022-09-25T14:06:39;5.90;;;4.70;;
57297;SDS011;43147;50.972;18.210;2022-09-25T14:11:52;6.40;;;5.00;;
57297;SDS011;43147;50.972;18.210;2022-09-25T14:16:55;8.60;;;4.80;;
57297;SDS011;43147;50.972;18.210;2022-09-25T14:19:27;7.10;;;5.20;;
57297;SDS011;43147;50.972;18.210;2022-09-25T14:22:01;6.90;;;5.50;;
57297;SDS011;43147;50.972;18.210;2022-09-25T14:24:28;5.80;;;5.20;;
57297;SDS011;43147;50.972;18.210;2022-09-25T14:26:57;10.70;;;7.70;;
57297;SDS011;43147;50.972;18.210;2022-09-25T14:29:25;5.30;;;4.80;;
57297;SDS011;43147;50.972;18.210;2022-09-25T14:46:12;8.20;;;5.80;;
57297;SDS011;43147;50.972;18.210;2022-09-25T14:48:48;6.80;;;4.90;;
57297;SDS011;43147;50.972;18.210;2022-09-25T14:51:18;6.90;;;5.00;;
57297;SDS011;43147;50.972;18.210;2022-09-25T14:53:49;7.30;;;5.10;;
57297;SDS011;43147;50.972;18.210;2022-09-25T14:56:20;5.60;;;5.10;;
57297;SDS011;43147;50.972;18.210;2022-09-25T14:58:47;6.00;;;5.20;;
57297;SDS011;43147;50.972;18.210;2022-09-25T15:01:25;7.80;;;5.10;;
57297;SDS011;43147;50.972;18.210;2022-09-25T15:03:57;7.60;;;5.40;;
57297;SDS011;43147;50.972;18.210;2022-09-25T15:06:29;7.00;;;6.30;;
57297;SDS011;43147;50.972;18.210;2022-09-25T15:08:59;11.40;;;6.90;;
57297;SDS011;43147;50.972;18.210;2022-09-25T15:11:40;6.60;;;5.90;;
57297;SDS011;43147;50.972;18.210;2022-09-25T15:14:09;6.30;;;5.60;;
57297;SDS011;43147;50.972;18.210;2022-09-25T15:16:36;7.00;;;6.30;;
57297;SDS011;43147;50.972;18.210;2022-09-25T15:21:47;9.20;;;5.60;;
57297;SDS011;43147;50.972;18.210;2022-09-25T15:24:29;7.40;;;5.70;;
57297;SDS011;43147;50.972;18.210;2022-09-25T15:26:57;5.60;;;5.00;;
57297;SDS011;43147;50.972;18.210;2022-09-25T15:29:46;7.20;;;5.00;;
57297;SDS011;43147;50.972;18.210;2022-09-25T15:32:20;6.50;;;4.90;;
57297;SDS011;43147;50.972;18.210;2022-09-25T15:35:03;6.80;;;5.00;;
57297;SDS011;43147;50.972;18.210;2022-09-25T15:37:43;4.80;;;4.20;;
57297;SDS011;43147;50.972;18.210;2022-09-25T15:40:24;6.90;;;5.40;;
57297;SDS011;43147;50.972;18.210;2022-09-25T15:42:54;6.40;;;5.60;;
57297;SDS011;43147;50.972;18.210;2022-09-25T15:48:01;8.40;;;5.10;;
57297;SDS011;43147;50.972;18.210;2022-09-25T15:50:54;9.50;;;5.60;;
57297;SDS011;43147;50.972;18.210;2022-09-25T15:56:12;8.70;;;5.90;;
57297;SDS011;43147;50.972;18.210;2022-09-25T16:01:39;7.40;;;5.40;;
57297;SDS011;43147;50.972;18.210;2022-09-25T16:04:24;8.70;;;6.20;;
57297;SDS011;43147;50.972;18.210;2022-09-25T16:09:51;8.30;;;6.30;;
57297;SDS011;43147;50.972;18.210;2022-09-25T16:12:25;7.30;;;6.50;;
57297;SDS011;43147;50.972;18.210;2022-09-25T16:14:54;8.40;;;7.00;;
57297;SDS011;43147;50.972;18.210;2022-09-25T16:17:31;13.00;;;8.00;;
57297;SDS011;43147;50.972;18.210;2022-09-25T16:20:29;8.90;;;7.20;;
57297;SDS011;43147;50.972;18.210;2022-09-25T16:22:57;8.00;;;7.20;;
57297;SDS011;43147;50.972;18.210;2022-09-25T16:25:45;9.00;;;7.50;;
57297;SDS011;43147;50.972;18.210;2022-09-25T16:28:21;12.60;;;8.30;;
57297;SDS011;43147;50.972;18.210;2022-09-25T16:30:49;9.10;;;7.80;;
57297;SDS011;43147;50.972;18.210;2022-09-25T16:36:06;11.50;;;9.00;;
57297;SDS011;43147;50.972;18.210;2022-09-25T16:38:40;11.90;;;9.00;;
57297;SDS011;43147;50.972;18.210;2022-09-25T16:43:38;18.70;;;11.00;;
57297;SDS011;43147;50.972;18.210;2022-09-25T16:46:18;13.70;;;10.70;;
57297;SDS011;43147;50.972;18.210;2022-09-25T16:48:55;13.30;;;11.10;;
57297;SDS011;43147;50.972;18.210;2022-09-25T16:51:23;15.80;;;12.30;;
57297;SDS011;43147;50.972;18.210;2022-09-25T16:53:57;17.80;;;12.50;;
57297;SDS011;43147;50.972;18.210;2022-09-25T16:56:23;19.00;;;13.10;;
57297;SDS011;43147;50.972;18.210;2022-09-25T16:58:51;19.10;;;14.30;;
57297;SDS011;43147;50.972;18.210;2022-09-25T17:01:17;22.40;;;16.80;;
57297;SDS011;43147;50.972;18.210;2022-09-25T17:03:44;24.10;;;19.00;;
57297;SDS011;43147;50.972;18.210;2022-09-25T17:06:16;31.50;;;24.70;;
57297;SDS011;43147;50.972;18.210;2022-09-25T17:08:46;56.30;;;33.80;;
57297;SDS011;43147;50.972;18.210;2022-09-25T17:11:13;68.60;;;42.60;;
57297;SDS011;43147;50.972;18.210;2022-09-25T17:13:43;60.20;;;36.80;;
57297;SDS011;43147;50.972;18.210;2022-09-25T17:16:08;71.50;;;50.30;;
57297;SDS011;43147;50.972;18.210;2022-09-25T17:18:34;74.30;;;46.40;;
57297;SDS011;43147;50.972;18.210;2022-09-25T17:21:00;73.70;;;46.40;;
57297;SDS011;43147;50.972;18.210;2022-09-25T17:23:27;65.00;;;40.50;;
57297;SDS011;43147;50.972;18.210;2022-09-25T17:25:54;63.80;;;43.80;;
57297;SDS011;43147;50.972;18.210;2022-09-25T17:28:25;63.70;;;37.10;;
57297;SDS011;43147;50.972;18.210;2022-09-25T17:30:51;73.20;;;45.00;;
57297;SDS011;43147;50.972;18.210;2022-09-25T17:33:19;66.70;;;39.50;;
57297;SDS011;43147;50.972;18.210;2022-09-25T17:38:19;70.30;;;44.50;;
57297;SDS011;43147;50.972;18.210;2022-09-25T17:40:49;89.30;;;46.70;;
57297;SDS011;43147;50.972;18.210;2022-09-25T17:43:18;101.50;;;53.00;;
57297;SDS011;43147;50.972;18.210;2022-09-25T17:48:17;75.80;;;42.90;;
57297;SDS011;43147;50.972;18.210;2022-09-25T17:50:55;88.20;;;46.00;;
57297;SDS011;43147;50.972;18.210;2022-09-25T17:53:23;85.50;;;44.70;;